Time;durP1;ratioP1;P1;durP2;ratioP2;P2;SDS_P1;SDS_P2;PMS_P1;PMS_P2;Temp;Humidity;BMP_temperature;BMP_pressure;BME280_temperature;BME280_humidity;BME280_pressure;Samples;Min_cycle;Max_cycle;Signal;HPM_P1;HPM_P2
2023/03/24 00:00:45;;;;;;;12.95;5.15;;;;;;;;;;5148901;27;20160;-80
2023/03/24 00:03:11;;;;;;;13.30;5.13;;;;;;;;;;5121003;27;20495;-81
2023/03/24 00:05:39;;;;;;;13.35;5.65;;;;;;;;;;5133256;27;20042;-79
2023/03/24 00:08:05;;;;;;;11.55;5.25;;;;;;;;;;5133128;27;20051;-79
2023/03/24 00:10:33;;;;;;;13.52;4.70;;;;;;;;;;5132963;27;20129;-79
2023/03/24 00:12:59;;;;;;;9.73;5.13;;;;;;;;;;5147759;27;20050;-80
2023/03/24 00:15:26;;;;;;;13.25;5.40;;;;;;;;;;5157058;27;20132;-81
2023/03/24 00:17:54;;;;;;;9.60;4.90;;;;;;;;;;5156915;27;20046;-79
2023/03/24 00:20:21;;;;;;;11.93;4.78;;;;;;;;;;5140030;27;20061;-82
2023/03/24 00:22:49;;;;;;;14.82;5.03;;;;;;;;;;5123014;27;20073;-82
2023/03/24 00:25:16;;;;;;;9.35;4.78;;;;;;;;;;5136930;27;20103;-82
2023/03/24 00:27:47;;;;;;;11.63;4.78;;;;;;;;;;5156575;27;20100;-80
2023/03/24 00:30:13;;;;;;;10.13;4.63;;;;;;;;;;5156927;27;20050;-81
2023/03/24 00:32:39;;;;;;;10.90;4.65;;;;;;;;;;5156641;27;20042;-80
2023/03/24 00:35:07;;;;;;;12.70;4.78;;;;;;;;;;5140081;27;20034;-81
2023/03/24 00:37:36;;;;;;;10.40;4.70;;;;;;;;;;5161281;27;20102;-81
2023/03/24 00:40:05;;;;;;;11.10;4.43;;;;;;;;;;5140188;27;20057;-81
2023/03/24 00:42:32;;;;;;;10.68;4.65;;;;;;;;;;5173629;27;20074;-80
2023/03/24 00:44:59;;;;;;;11.95;5.05;;;;;;;;;;5127023;27;20034;-80
2023/03/24 00:47:25;;;;;;;10.93;4.80;;;;;;;;;;5156957;27;20434;-80
2023/03/24 00:49:53;;;;;;;8.93;4.50;;;;;;;;;;5156401;27;20134;-80
2023/03/24 00:52:20;;;;;;;10.32;4.65;;;;;;;;;;5139571;27;20034;-81
2023/03/24 00:54:47;;;;;;;10.30;4.78;;;;;;;;;;5156340;27;20034;-80
2023/03/24 00:57:20;;;;;;;9.15;4.35;;;;;;;;;;5139342;27;20071;-80
2023/03/24 00:59:50;;;;;;;11.48;4.40;;;;;;;;;;5156418;27;20049;-81
2023/03/24 01:02:23;;;;;;;13.07;4.75;;;;;;;;;;5119521;27;20392;-82
2023/03/24 01:04:53;;;;;;;10.18;4.50;;;;;;;;;;5128939;27;20050;-81
2023/03/24 01:07:20;;;;;;;9.10;5.05;;;;;;;;;;5119217;27;20385;-82
2023/03/24 01:09:56;;;;;;;12.60;4.60;;;;;;;;;;5135659;27;20054;-82
2023/03/24 01:12:23;;;;;;;8.90;4.45;;;;;;;;;;5099253;27;20035;-81
2023/03/24 01:14:50;;;;;;;11.55;4.80;;;;;;;;;;5127544;27;20099;-82
2023/03/24 01:17:18;;;;;;;11.30;5.05;;;;;;;;;;5154257;27;20089;-82
2023/03/24 01:19:44;;;;;;;7.95;4.50;;;;;;;;;;5118642;27;20035;-81
2023/03/24 01:22:11;;;;;;;10.38;5.18;;;;;;;;;;5135800;27;20113;-80
2023/03/24 01:24:37;;;;;;;9.77;4.65;;;;;;;;;;5110334;28;20038;-82
2023/03/24 01:27:03;;;;;;;7.82;4.72;;;;;;;;;;5148181;27;20157;-83
2023/03/24 01:29:30;;;;;;;10.95;4.38;;;;;;;;;;5118985;27;20550;-81
2023/03/24 01:31:56;;;;;;;9.05;4.78;;;;;;;;;;5135532;27;20099;-81
2023/03/24 01:34:22;;;;;;;9.48;5.00;;;;;;;;;;5118651;27;20092;-80
2023/03/24 01:36:48;;;;;;;9.45;4.68;;;;;;;;;;5135619;27;20049;-81
2023/03/24 01:39:14;;;;;;;11.93;4.78;;;;;;;;;;5154147;27;20083;-80
2023/03/24 01:41:40;;;;;;;8.95;4.55;;;;;;;;;;5139521;27;20072;-81
2023/03/24 01:44:26;;;;;;;7.88;5.05;;;;;;;;;;5139923;27;20411;-80
2023/03/24 01:46:52;;;;;;;8.55;4.75;;;;;;;;;;5158618;27;20057;-82
2023/03/24 01:49:18;;;;;;;10.60;5.00;;;;;;;;;;5105868;27;20039;-81
2023/03/24 01:51:46;;;;;;;9.10;4.40;;;;;;;;;;5139925;27;20035;-80
2023/03/24 01:54:34;;;;;;;8.18;4.40;;;;;;;;;;5172723;27;20034;-82
2023/03/24 01:57:12;;;;;;;11.05;5.35;;;;;;;;;;5128111;27;20038;-82
2023/03/24 01:59:42;;;;;;;9.95;4.57;;;;;;;;;;5122739;27;20047;-82
2023/03/24 02:02:08;;;;;;;8.10;4.50;;;;;;;;;;5139959;27;20070;-83
2023/03/24 02:04:40;;;;;;;9.85;4.60;;;;;;;;;;5125108;27;20068;-83
2023/03/24 02:07:16;;;;;;;8.20;4.45;;;;;;;;;;5139995;27;20038;-82
2023/03/24 02:09:42;;;;;;;9.45;4.95;;;;;;;;;;5127050;27;20113;-81
2023/03/24 02:12:08;;;;;;;9.52;4.55;;;;;;;;;;5149738;27;20038;-81
2023/03/24 02:14:34;;;;;;;9.90;5.10;;;;;;;;;;5139560;27;20398;-81
2023/03/24 02:17:10;;;;;;;9.20;5.30;;;;;;;;;;5121561;27;20038;-81
2023/03/24 02:19:43;;;;;;;9.77;5.10;;;;;;;;;;5138117;27;20130;-82
2023/03/24 02:22:35;;;;;;;12.82;5.63;;;;;;;;;;5159757;27;20356;-79
2023/03/24 02:25:01;;;;;;;8.00;4.53;;;;;;;;;;5122921;27;20395;-81
2023/03/24 02:27:42;;;;;;;9.00;4.63;;;;;;;;;;5151416;27;20038;-81
2023/03/24 02:30:18;;;;;;;8.15;4.75;;;;;;;;;;5130259;27;20479;-82
2023/03/24 02:33:07;;;;;;;10.32;4.85;;;;;;;;;;5122128;27;20041;-82
2023/03/24 02:35:33;;;;;;;7.97;4.93;;;;;;;;;;5095278;27;20406;-80
2023/03/24 02:38:18;;;;;;;11.05;4.90;;;;;;;;;;5159057;27;20089;-80
2023/03/24 02:40:47;;;;;;;9.95;5.03;;;;;;;;;;5174564;27;20051;-83
2023/03/24 02:43:28;;;;;;;10.30;4.88;;;;;;;;;;5138737;27;20515;-81
2023/03/24 02:46:06;;;;;;;10.45;5.10;;;;;;;;;;5161510;27;20038;-81
2023/03/24 02:48:51;;;;;;;7.30;4.65;;;;;;;;;;5138726;27;20406;-80
2023/03/24 02:51:25;;;;;;;8.52;5.10;;;;;;;;;;5157513;27;20141;-81
2023/03/24 02:54:03;;;;;;;9.05;4.90;;;;;;;;;;5138724;27;20039;-81
2023/03/24 02:56:29;;;;;;;11.10;5.18;;;;;;;;;;5140392;27;20035;-82
2023/03/24 02:58:59;;;;;;;9.02;5.25;;;;;;;;;;5142009;27;20482;-82
2023/03/24 03:01:30;;;;;;;9.63;5.35;;;;;;;;;;5125945;27;20030;-81
2023/03/24 03:04:07;;;;;;;7.18;5.00;;;;;;;;;;5147827;27;20525;-80
2023/03/24 03:06:35;;;;;;;8.70;5.20;;;;;;;;;;5157597;27;20038;-81
2023/03/24 03:09:06;;;;;;;7.55;4.65;;;;;;;;;;5157375;27;20042;-81
2023/03/24 03:11:32;;;;;;;9.80;5.05;;;;;;;;;;5146921;27;20090;-83
2023/03/24 03:14:21;;;;;;;7.13;4.32;;;;;;;;;;5158643;27;20121;-82
2023/03/24 03:16:52;;;;;;;6.65;3.35;;;;;;;;;;5134344;27;20125;-79
2023/03/24 03:19:21;;;;;;;6.43;3.30;;;;;;;;;;5154359;27;20046;-82
2023/03/24 03:21:48;;;;;;;7.28;3.45;;;;;;;;;;5150513;27;20038;-81
2023/03/24 03:24:25;;;;;;;8.25;3.42;;;;;;;;;;5147390;27;20093;-80
2023/03/24 03:26:54;;;;;;;8.40;3.15;;;;;;;;;;5147927;27;20051;-84
2023/03/24 03:29:22;;;;;;;6.57;3.15;;;;;;;;;;5120786;27;20039;-82
2023/03/24 03:32:08;;;;;;;5.47;2.50;;;;;;;;;;5156897;27;20049;-79
2023/03/24 03:34:34;;;;;;;8.35;2.20;;;;;;;;;;5138234;27;20402;-81
2023/03/24 03:37:13;;;;;;;8.30;2.22;;;;;;;;;;5137711;27;20051;-82
2023/03/24 03:40:12;;;;;;;7.00;2.65;;;;;;;;;;5120557;27;20066;-82
2023/03/24 03:42:38;;;;;;;4.90;2.00;;;;;;;;;;5065765;27;20047;-83
2023/03/24 03:45:08;;;;;;;6.25;2.30;;;;;;;;;;5130960;27;20100;-82
2023/03/24 03:47:34;;;;;;;7.00;2.25;;;;;;;;;;5127281;27;20393;-83
2023/03/24 03:50:01;;;;;;;6.10;1.98;;;;;;;;;;5158044;27;20065;-82
2023/03/24 03:52:27;;;;;;;6.60;2.00;;;;;;;;;;5157854;27;20031;-83
2023/03/24 03:54:54;;;;;;;12.85;2.40;;;;;;;;;;5158024;27;20033;-81
2023/03/24 03:57:20;;;;;;;8.23;1.90;;;;;;;;;;5143081;27;20031;-82
2023/03/24 03:59:46;;;;;;;8.38;1.98;;;;;;;;;;5146013;27;20099;-81
2023/03/24 04:02:31;;;;;;;9.50;1.92;;;;;;;;;;5140107;27;20037;-81
2023/03/24 04:05:04;;;;;;;14.93;2.70;;;;;;;;;;5140254;27;20117;-81
2023/03/24 04:07:39;;;;;;;6.70;1.80;;;;;;;;;;5138575;27;20057;-82
2023/03/24 04:10:18;;;;;;;8.68;2.17;;;;;;;;;;5137019;27;20402;-81
2023/03/24 04:13:06;;;;;;;11.13;2.22;;;;;;;;;;5105783;27;20049;-82
2023/03/24 04:15:44;;;;;;;9.13;1.77;;;;;;;;;;5137827;27;20038;-82
2023/03/24 04:18:26;;;;;;;9.27;1.80;;;;;;;;;;5157140;27;20050;-82
2023/03/24 04:21:05;;;;;;;8.60;2.00;;;;;;;;;;5157490;27;20458;-82
2023/03/24 04:24:01;;;;;;;9.52;2.85;;;;;;;;;;5146409;27;20073;-82
2023/03/24 04:26:33;;;;;;;6.70;1.80;;;;;;;;;;5122486;27;20417;-83
2023/03/24 04:29:08;;;;;;;9.88;1.98;;;;;;;;;;5157230;27;20268;-81
2023/03/24 04:31:38;;;;;;;14.52;2.10;;;;;;;;;;5130692;27;20117;-81
2023/03/24 04:34:11;;;;;;;11.05;2.45;;;;;;;;;;5157452;27;20042;-79
2023/03/24 04:36:43;;;;;;;8.82;2.15;;;;;;;;;;5141053;27;20049;-82
2023/03/24 04:39:15;;;;;;;10.10;2.97;;;;;;;;;;5150563;27;20066;-83
2023/03/24 04:41:42;;;;;;;15.45;3.10;;;;;;;;;;5157039;27;20034;-81
2023/03/24 04:44:09;;;;;;;16.23;2.97;;;;;;;;;;5175946;27;20049;-83
2023/03/24 04:46:36;;;;;;;15.30;3.55;;;;;;;;;;5137982;27;20571;-81
2023/03/24 04:49:03;;;;;;;14.95;3.50;;;;;;;;;;5147645;27;20030;-82
2023/03/24 04:51:31;;;;;;;12.93;2.88;;;;;;;;;;5142071;27;20543;-82
2023/03/24 04:53:57;;;;;;;17.13;3.00;;;;;;;;;;5147375;27;20099;-81
2023/03/24 04:56:29;;;;;;;13.95;2.83;;;;;;;;;;5131187;27;20046;-82
2023/03/24 04:58:55;;;;;;;14.20;2.75;;;;;;;;;;5142181;27;20038;-81
2023/03/24 05:01:22;;;;;;;17.63;2.72;;;;;;;;;;5143763;27;20073;-83
2023/03/24 05:03:48;;;;;;;12.20;2.78;;;;;;;;;;5140211;27;20043;-79
2023/03/24 05:06:15;;;;;;;13.65;2.58;;;;;;;;;;5117400;27;20046;-82
2023/03/24 05:08:41;;;;;;;14.75;3.00;;;;;;;;;;5135875;27;20513;-83
2023/03/24 05:11:08;;;;;;;17.83;3.40;;;;;;;;;;5135610;27;20046;-82
2023/03/24 05:13:34;;;;;;;10.70;2.30;;;;;;;;;;5118565;27;20487;-83
2023/03/24 05:16:00;;;;;;;11.80;2.55;;;;;;;;;;5140103;27;20182;-82
2023/03/24 05:18:26;;;;;;;20.40;2.78;;;;;;;;;;5163698;27;20049;-81
2023/03/24 05:20:53;;;;;;;12.75;2.60;;;;;;;;;;5154169;27;20494;-81
2023/03/24 05:23:19;;;;;;;10.15;2.30;;;;;;;;;;5135530;27;20151;-80
2023/03/24 05:25:46;;;;;;;15.20;2.50;;;;;;;;;;5150676;27;20050;-81
2023/03/24 05:28:12;;;;;;;12.02;2.33;;;;;;;;;;5135817;27;20047;-82
2023/03/24 05:30:38;;;;;;;10.48;2.20;;;;;;;;;;5132103;27;20375;-82
2023/03/24 05:33:04;;;;;;;11.63;2.15;;;;;;;;;;5142244;27;20113;-82
2023/03/24 05:35:30;;;;;;;14.65;2.20;;;;;;;;;;5127679;27;20039;-82
2023/03/24 05:37:56;;;;;;;12.02;2.03;;;;;;;;;;5153429;27;20070;-80
2023/03/24 05:40:22;;;;;;;11.77;1.95;;;;;;;;;;5156452;27;20482;-82
2023/03/24 05:42:49;;;;;;;14.63;2.20;;;;;;;;;;5142012;27;20432;-82
2023/03/24 05:45:16;;;;;;;11.25;1.80;;;;;;;;;;5139187;27;20061;-81
2023/03/24 05:47:42;;;;;;;11.38;2.15;;;;;;;;;;5156440;27;20487;-82
2023/03/24 05:50:08;;;;;;;11.10;2.03;;;;;;;;;;5156221;27;20379;-82
2023/03/24 05:52:34;;;;;;;10.80;2.40;;;;;;;;;;5144205;27;20038;-82
2023/03/24 05:55:01;;;;;;;14.57;2.22;;;;;;;;;;5134859;27;20057;-82
2023/03/24 05:57:29;;;;;;;9.52;2.38;;;;;;;;;;5135242;27;20042;-81
2023/03/24 05:59:55;;;;;;;12.70;2.35;;;;;;;;;;5148196;27;20070;-84
2023/03/24 06:02:22;;;;;;;11.80;2.10;;;;;;;;;;5141496;27;20517;-82
2023/03/24 06:04:50;;;;;;;10.52;2.20;;;;;;;;;;5139113;27;20527;-82
2023/03/24 06:07:16;;;;;;;12.25;2.17;;;;;;;;;;5156103;27;20046;-82
2023/03/24 06:09:45;;;;;;;15.23;2.65;;;;;;;;;;5155764;27;20034;-81
2023/03/24 06:12:12;;;;;;;12.35;2.30;;;;;;;;;;5156071;27;20393;-81
2023/03/24 06:14:39;;;;;;;14.13;2.30;;;;;;;;;;5156003;27;20445;-82
2023/03/24 06:17:07;;;;;;;12.75;2.20;;;;;;;;;;5155704;27;20054;-82
2023/03/24 06:19:33;;;;;;;13.35;2.10;;;;;;;;;;5134912;27;20035;-82
2023/03/24 06:22:02;;;;;;;11.90;2.05;;;;;;;;;;5166189;27;20098;-82
2023/03/24 06:24:29;;;;;;;14.07;2.10;;;;;;;;;;5133687;27;20043;-83
2023/03/24 06:27:00;;;;;;;13.02;2.28;;;;;;;;;;5137115;27;20038;-82
2023/03/24 06:29:28;;;;;;;12.93;2.63;;;;;;;;;;5138973;27;20065;-82
2023/03/24 06:31:54;;;;;;;12.57;2.33;;;;;;;;;;5131425;27;20077;-83
2023/03/24 06:34:21;;;;;;;11.23;2.03;;;;;;;;;;5144959;27;20034;-82
2023/03/24 06:36:47;;;;;;;18.95;2.92;;;;;;;;;;5159576;27;20044;-83
2023/03/24 06:39:13;;;;;;;15.75;2.00;;;;;;;;;;5128116;27;20042;-82
2023/03/24 06:41:42;;;;;;;12.70;2.53;;;;;;;;;;5124683;27;20125;-82
2023/03/24 06:44:08;;;;;;;13.25;2.25;;;;;;;;;;5151858;27;20045;-83
2023/03/24 06:46:34;;;;;;;14.77;2.10;;;;;;;;;;5154665;27;20038;-83
2023/03/24 06:49:00;;;;;;;9.95;2.00;;;;;;;;;;5121642;27;20099;-82
2023/03/24 06:51:26;;;;;;;16.45;2.22;;;;;;;;;;5138214;27;20085;-81
2023/03/24 06:53:52;;;;;;;15.48;2.97;;;;;;;;;;5147308;27;20030;-82
2023/03/24 06:56:19;;;;;;;14.30;2.35;;;;;;;;;;5155524;27;20040;-82
2023/03/24 06:58:46;;;;;;;18.23;2.97;;;;;;;;;;5156229;27;20043;-82
2023/03/24 07:01:13;;;;;;;16.98;2.40;;;;;;;;;;5139114;27;20395;-82
2023/03/24 07:03:41;;;;;;;20.92;3.28;;;;;;;;;;5153850;27;20054;-82
2023/03/24 07:06:08;;;;;;;17.60;2.60;;;;;;;;;;5159271;27;20051;-81
2023/03/24 07:08:35;;;;;;;16.38;2.58;;;;;;;;;;5158750;27;20042;-82
2023/03/24 07:11:01;;;;;;;25.15;3.28;;;;;;;;;;5158763;27;20046;-82
2023/03/24 07:13:27;;;;;;;22.52;2.97;;;;;;;;;;5158608;27;20394;-83
2023/03/24 07:15:53;;;;;;;20.35;3.05;;;;;;;;;;5129298;27;20208;-82
2023/03/24 07:18:20;;;;;;;17.75;2.95;;;;;;;;;;5150428;27;20047;-82
2023/03/24 07:20:46;;;;;;;17.60;3.38;;;;;;;;;;5148209;27;20402;-83
2023/03/24 07:23:13;;;;;;;15.30;2.40;;;;;;;;;;5177309;27;20042;-83
2023/03/24 07:25:39;;;;;;;25.63;2.80;;;;;;;;;;5150436;27;20074;-82
2023/03/24 07:28:06;;;;;;;22.00;3.00;;;;;;;;;;5135431;27;20034;-82
2023/03/24 07:30:34;;;;;;;25.20;3.55;;;;;;;;;;5158357;27;20042;-83
2023/03/24 07:33:01;;;;;;;17.60;2.63;;;;;;;;;;5177245;27;20046;-82
2023/03/24 07:35:27;;;;;;;28.30;3.83;;;;;;;;;;5126344;27;20037;-82
2023/03/24 07:37:57;;;;;;;19.50;3.10;;;;;;;;;;5147238;27;20045;-80
2023/03/24 07:40:23;;;;;;;21.55;3.47;;;;;;;;;;5151404;27;20045;-83
2023/03/24 07:42:50;;;;;;;20.45;3.58;;;;;;;;;;5133652;27;20486;-82
2023/03/24 07:45:16;;;;;;;19.73;3.55;;;;;;;;;;5159133;27;20034;-79
2023/03/24 07:47:43;;;;;;;16.45;2.72;;;;;;;;;;5158086;27;20038;-79
2023/03/24 07:50:10;;;;;;;19.30;3.63;;;;;;;;;;5158448;27;20457;-82
2023/03/24 07:52:40;;;;;;;20.45;2.88;;;;;;;;;;5148672;27;20046;-82
2023/03/24 07:55:07;;;;;;;19.50;2.85;;;;;;;;;;5153596;27;20068;-82
2023/03/24 07:57:36;;;;;;;19.45;3.30;;;;;;;;;;5126401;27;20099;-82
2023/03/24 08:00:08;;;;;;;24.05;3.80;;;;;;;;;;5146500;27;20047;-83
2023/03/24 08:02:34;;;;;;;22.05;2.90;;;;;;;;;;5157172;27;20046;-83
2023/03/24 08:05:01;;;;;;;21.17;2.95;;;;;;;;;;5141132;27;20048;-83
2023/03/24 08:07:27;;;;;;;21.02;3.13;;;;;;;;;;5142057;27;20034;-83
2023/03/24 08:09:53;;;;;;;19.65;3.58;;;;;;;;;;5141850;27;20050;-82
2023/03/24 08:12:19;;;;;;;17.23;3.53;;;;;;;;;;5156256;27;20066;-82
2023/03/24 08:14:45;;;;;;;24.20;3.40;;;;;;;;;;5158140;27;20030;-80
2023/03/24 08:17:11;;;;;;;19.77;3.38;;;;;;;;;;5157733;27;20468;-81
2023/03/24 08:19:38;;;;;;;20.92;3.30;;;;;;;;;;5157434;27;20038;-83
2023/03/24 08:22:04;;;;;;;18.10;2.72;;;;;;;;;;5157318;27;20081;-82
2023/03/24 08:24:30;;;;;;;17.70;3.10;;;;;;;;;;5128576;27;20046;-83
2023/03/24 08:27:01;;;;;;;18.88;3.15;;;;;;;;;;5155100;27;20042;-82
2023/03/24 08:29:27;;;;;;;23.13;3.15;;;;;;;;;;5146467;27;20121;-82
2023/03/24 08:31:53;;;;;;;18.05;2.95;;;;;;;;;;5150662;27;20594;-82
2023/03/24 08:34:19;;;;;;;20.95;3.45;;;;;;;;;;5145572;27;20045;-83
2023/03/24 08:36:46;;;;;;;17.75;3.00;;;;;;;;;;5125014;27;20375;-83
2023/03/24 08:39:12;;;;;;;21.40;3.13;;;;;;;;;;5145008;27;20042;-83
2023/03/24 08:41:38;;;;;;;20.45;3.67;;;;;;;;;;5157086;27;20402;-82
2023/03/24 08:44:06;;;;;;;26.70;4.93;;;;;;;;;;5154490;27;20046;-82
2023/03/24 08:46:32;;;;;;;28.67;4.18;;;;;;;;;;5157025;27;20077;-80
2023/03/24 08:48:59;;;;;;;20.40;4.05;;;;;;;;;;5156245;27;20046;-81
2023/03/24 08:51:25;;;;;;;25.38;3.65;;;;;;;;;;5156723;27;20042;-81
2023/03/24 08:53:52;;;;;;;20.30;3.28;;;;;;;;;;5156242;27;20041;-83
2023/03/24 08:56:19;;;;;;;20.02;3.25;;;;;;;;;;5157139;27;20478;-82
2023/03/24 08:58:47;;;;;;;26.42;4.70;;;;;;;;;;5142253;27;20501;-82
2023/03/24 09:01:14;;;;;;;14.70;3.17;;;;;;;;;;5146991;27;20049;-83
2023/03/24 09:03:40;;;;;;;18.58;3.38;;;;;;;;;;5166681;27;20042;-82
2023/03/24 09:06:06;;;;;;;21.23;3.75;;;;;;;;;;5142086;27;20158;-83
2023/03/24 09:08:32;;;;;;;18.77;3.05;;;;;;;;;;5129208;27;20038;-81
2023/03/24 09:10:59;;;;;;;17.83;3.70;;;;;;;;;;5152564;27;20129;-82
2023/03/24 09:13:25;;;;;;;15.23;3.42;;;;;;;;;;5139249;27;20065;-83
2023/03/24 09:15:52;;;;;;;23.05;3.67;;;;;;;;;;5124936;27;20112;-84
2023/03/24 09:18:19;;;;;;;23.92;4.43;;;;;;;;;;5156199;27;20408;-82
2023/03/24 09:20:46;;;;;;;19.48;3.75;;;;;;;;;;5156277;27;20050;-81
2023/03/24 09:23:12;;;;;;;18.98;3.88;;;;;;;;;;5139233;27;20117;-83
2023/03/24 09:25:38;;;;;;;18.85;3.67;;;;;;;;;;5122334;27;20490;-82
2023/03/24 09:28:05;;;;;;;18.35;3.55;;;;;;;;;;5156151;27;20409;-82
2023/03/24 09:30:32;;;;;;;17.88;2.83;;;;;;;;;;5156419;27;20443;-79
2023/03/24 09:32:58;;;;;;;19.25;3.47;;;;;;;;;;5155638;27;20054;-81
2023/03/24 09:35:26;;;;;;;15.57;3.03;;;;;;;;;;5155962;27;20042;-81
2023/03/24 09:37:52;;;;;;;18.80;3.45;;;;;;;;;;5155861;27;20030;-81
2023/03/24 09:40:23;;;;;;;16.85;2.88;;;;;;;;;;5156381;27;20042;-82
2023/03/24 09:43:00;;;;;;;20.67;3.50;;;;;;;;;;5141711;27;20043;-80
2023/03/24 09:45:28;;;;;;;15.77;2.72;;;;;;;;;;5130024;27;20463;-82
2023/03/24 09:47:57;;;;;;;18.98;3.05;;;;;;;;;;5138706;27;20058;-83
2023/03/24 09:50:26;;;;;;;21.23;3.00;;;;;;;;;;5127018;27;20071;-82
2023/03/24 09:53:02;;;;;;;22.67;5.60;;;;;;;;;;5156098;27;20049;-83
2023/03/24 09:55:28;;;;;;;;;;;;;;;;;;5141798;27;20042;-81
2023/03/24 09:58:00;;;;;;;19.00;5.28;;;;;;;;;;5155834;27;19944;-77
2023/03/24 10:00:33;;;;;;;21.15;4.82;;;;;;;;;;5153375;27;20042;-81
2023/03/24 10:03:01;;;;;;;23.67;5.72;;;;;;;;;;5149229;27;20099;-82
2023/03/24 10:05:33;;;;;;;22.67;4.85;;;;;;;;;;5128300;27;20043;-81
2023/03/24 10:08:04;;;;;;;16.58;4.10;;;;;;;;;;5159872;27;20042;-79
2023/03/24 10:10:39;;;;;;;15.63;3.40;;;;;;;;;;5142791;27;20533;-81
2023/03/24 10:13:07;;;;;;;16.73;2.85;;;;;;;;;;5160057;27;20041;-81
2023/03/24 10:15:48;;;;;;;17.30;3.28;;;;;;;;;;5159915;27;20045;-81
2023/03/24 10:18:14;;;;;;;14.85;3.08;;;;;;;;;;5142256;27;20054;-81
2023/03/24 10:20:47;;;;;;;12.88;2.75;;;;;;;;;;5160230;27;20363;-81
2023/03/24 10:23:13;;;;;;;17.50;3.30;;;;;;;;;;5144121;27;20122;-84
2023/03/24 10:25:40;;;;;;;14.57;3.13;;;;;;;;;;5140802;27;20043;-77
2023/03/24 10:28:15;;;;;;;12.32;2.67;;;;;;;;;;5119400;27;20047;-83
2023/03/24 10:30:42;;;;;;;17.95;3.65;;;;;;;;;;5122268;27;20043;-80
2023/03/24 10:33:13;;;;;;;19.35;3.72;;;;;;;;;;5141161;27;20039;-82
2023/03/24 10:35:47;;;;;;;15.60;3.20;;;;;;;;;;5153381;27;20043;-82
2023/03/24 10:38:16;;;;;;;14.23;3.47;;;;;;;;;;5108557;27;20042;-83
2023/03/24 10:40:42;;;;;;;13.95;2.80;;;;;;;;;;5159078;27;20098;-79
2023/03/24 10:43:08;;;;;;;14.63;3.00;;;;;;;;;;5159646;27;20042;-79
2023/03/24 10:45:35;;;;;;;13.63;3.03;;;;;;;;;;5159270;27;20494;-81
2023/03/24 10:48:02;;;;;;;14.27;3.22;;;;;;;;;;5158881;27;20045;-80
2023/03/24 10:50:30;;;;;;;13.77;2.80;;;;;;;;;;5141477;27;20097;-80
2023/03/24 10:52:56;;;;;;;18.42;3.70;;;;;;;;;;5150574;27;20414;-79
2023/03/24 10:55:30;;;;;;;18.08;3.28;;;;;;;;;;5138841;27;20455;-85
2023/03/24 10:57:58;;;;;;;13.43;3.60;;;;;;;;;;5138160;27;20038;-84
2023/03/24 11:00:30;;;;;;;13.95;3.33;;;;;;;;;;5151042;27;20469;-84
2023/03/24 11:02:59;;;;;;;15.05;3.10;;;;;;;;;;5145797;27;20058;-82
2023/03/24 11:05:30;;;;;;;15.48;3.13;;;;;;;;;;5156249;27;20040;-81
2023/03/24 11:08:00;;;;;;;9.35;2.15;;;;;;;;;;5158497;27;20034;-80
2023/03/24 11:10:27;;;;;;;13.60;3.03;;;;;;;;;;5145096;27;20452;-84
2023/03/24 11:12:53;;;;;;;15.55;3.40;;;;;;;;;;5137177;27;20087;-81
2023/03/24 11:15:30;;;;;;;10.73;2.50;;;;;;;;;;5149398;27;20090;-84
2023/03/24 11:17:57;;;;;;;12.05;2.55;;;;;;;;;;5155211;27;20090;-84
2023/03/24 11:20:37;;;;;;;12.50;2.60;;;;;;;;;;5137973;27;20038;-84
2023/03/24 11:23:06;;;;;;;10.23;1.92;;;;;;;;;;5141723;27;20035;-78
2023/03/24 11:25:35;;;;;;;10.98;2.65;;;;;;;;;;5146344;27;20042;-80
2023/03/24 11:28:09;;;;;;;18.65;3.25;;;;;;;;;;5136214;27;20051;-83
2023/03/24 11:30:44;;;;;;;14.40;2.90;;;;;;;;;;5120751;27;20035;-84
2023/03/24 11:33:14;;;;;;;13.13;2.83;;;;;;;;;;5134257;27;20039;-80
2023/03/24 11:35:41;;;;;;;12.55;2.40;;;;;;;;;;5152454;27;20034;-79
2023/03/24 11:38:07;;;;;;;10.90;2.70;;;;;;;;;;5154965;27;20034;-84
2023/03/24 11:40:34;;;;;;;12.30;2.90;;;;;;;;;;5154789;27;20042;-80
2023/03/24 11:43:02;;;;;;;18.25;2.70;;;;;;;;;;5153905;27;20039;-84
2023/03/24 11:45:34;;;;;;;10.80;2.20;;;;;;;;;;5117341;27;20071;-83
2023/03/24 11:48:01;;;;;;;12.10;2.30;;;;;;;;;;5149908;27;20050;-82
2023/03/24 11:50:31;;;;;;;15.73;3.15;;;;;;;;;;5121175;27;20043;-83
2023/03/24 11:53:04;;;;;;;13.98;3.42;;;;;;;;;;5140884;27;20031;-82
2023/03/24 11:55:39;;;;;;;12.00;2.30;;;;;;;;;;5148624;27;20042;-83
2023/03/24 11:58:12;;;;;;;14.70;2.88;;;;;;;;;;5155610;27;20039;-82
2023/03/24 12:00:43;;;;;;;10.60;2.50;;;;;;;;;;5135113;27;20079;-84
2023/03/24 12:03:28;;;;;;;11.95;2.35;;;;;;;;;;5116525;27;20104;-81
2023/03/24 12:06:13;;;;;;;11.55;2.42;;;;;;;;;;5142265;27;20392;-84
2023/03/24 12:08:47;;;;;;;14.38;3.08;;;;;;;;;;5110847;27;20043;-82
2023/03/24 12:11:19;;;;;;;13.93;2.35;;;;;;;;;;5135832;27;20047;-83
2023/03/24 12:13:48;;;;;;;12.23;2.35;;;;;;;;;;5140734;27;20038;-76
2023/03/24 12:16:14;;;;;;;13.50;2.33;;;;;;;;;;5154791;27;20518;-78
2023/03/24 12:18:53;;;;;;;10.75;2.30;;;;;;;;;;5153689;27;20047;-77
2023/03/24 12:21:19;;;;;;;12.63;2.40;;;;;;;;;;5153735;27;20101;-83
2023/03/24 12:23:51;;;;;;;13.68;2.50;;;;;;;;;;5133411;27;20043;-82
2023/03/24 12:26:23;;;;;;;10.88;2.10;;;;;;;;;;5145635;27;20121;-83
2023/03/24 12:28:52;;;;;;;9.30;2.13;;;;;;;;;;5139870;27;20050;-83
2023/03/24 12:31:41;;;;;;;12.88;2.20;;;;;;;;;;5153833;27;20097;-78
2023/03/24 12:34:26;;;;;;;11.98;2.50;;;;;;;;;;5154031;27;20035;-81
2023/03/24 12:36:55;;;;;;;15.05;2.35;;;;;;;;;;5139275;27;20047;-82
2023/03/24 12:39:28;;;;;;;14.80;2.95;;;;;;;;;;5145376;27;20039;-83
2023/03/24 12:42:00;;;;;;;11.45;2.25;;;;;;;;;;5115720;27;20050;-84
2023/03/24 12:44:45;;;;;;;13.52;2.42;;;;;;;;;;5140844;27;20042;-87
2023/03/24 12:47:19;;;;;;;11.85;2.65;;;;;;;;;;5138911;27;20499;-83
2023/03/24 12:49:52;;;;;;;12.13;2.63;;;;;;;;;;5125640;27;20035;-78
2023/03/24 12:52:27;;;;;;;12.55;2.47;;;;;;;;;;5133759;27;20368;-84
2023/03/24 12:55:24;;;;;;;18.70;2.83;;;;;;;;;;5135615;27;20493;-83
2023/03/24 12:57:50;;;;;;;13.68;2.17;;;;;;;;;;5105049;27;20268;-78
2023/03/24 13:00:21;;;;;;;17.50;2.60;;;;;;;;;;5152035;27;20049;-78
2023/03/24 13:02:51;;;;;;;13.57;2.22;;;;;;;;;;5150799;27;20535;-79
2023/03/24 13:05:22;;;;;;;13.15;2.50;;;;;;;;;;5152499;27;20139;-79
2023/03/24 13:07:52;;;;;;;15.27;2.33;;;;;;;;;;5135725;27;20035;-78
2023/03/24 13:10:24;;;;;;;13.25;2.50;;;;;;;;;;5152810;27;20509;-79
2023/03/24 13:12:50;;;;;;;14.25;2.40;;;;;;;;;;5125169;27;20034;-78
2023/03/24 13:15:17;;;;;;;16.55;2.80;;;;;;;;;;5135270;27;20058;-77
2023/03/24 13:17:52;;;;;;;15.98;2.63;;;;;;;;;;5152668;27;20039;-77
2023/03/24 13:20:31;;;;;;;9.98;2.13;;;;;;;;;;5152752;27;20529;-78
2023/03/24 13:22:58;;;;;;;12.77;2.30;;;;;;;;;;5136032;27;20074;-85
2023/03/24 13:25:30;;;;;;;19.05;2.95;;;;;;;;;;5140673;27;20383;-80
2023/03/24 13:27:59;;;;;;;15.77;2.30;;;;;;;;;;5129825;27;20391;-83
2023/03/24 13:30:30;;;;;;;13.48;2.58;;;;;;;;;;5143916;27;20046;-84
2023/03/24 13:33:00;;;;;;;14.68;2.42;;;;;;;;;;5147155;27;20046;-83
2023/03/24 13:35:29;;;;;;;14.52;2.22;;;;;;;;;;5098808;28;20047;-84
2023/03/24 13:38:08;;;;;;;17.67;2.70;;;;;;;;;;5127161;27;20042;-82
2023/03/24 13:40:38;;;;;;;11.48;1.98;;;;;;;;;;5152026;27;20073;-80
2023/03/24 13:43:10;;;;;;;13.40;2.15;;;;;;;;;;5152614;27;20105;-80
2023/03/24 13:45:36;;;;;;;11.07;2.28;;;;;;;;;;5152998;27;20055;-80
2023/03/24 13:48:05;;;;;;;12.55;2.10;;;;;;;;;;5152727;27;20039;-79
2023/03/24 13:50:37;;;;;;;10.90;1.92;;;;;;;;;;5152213;27;20043;-80
2023/03/24 13:53:12;;;;;;;14.48;2.08;;;;;;;;;;5120801;27;20035;-80
2023/03/24 13:55:39;;;;;;;13.52;2.20;;;;;;;;;;5129716;28;20095;-80
2023/03/24 13:58:12;;;;;;;9.57;2.00;;;;;;;;;;5143880;27;20039;-79
2023/03/24 14:00:57;;;;;;;11.73;1.88;;;;;;;;;;5131457;28;20452;-82
2023/03/24 14:03:38;;;;;;;10.48;1.80;;;;;;;;;;5146888;27;20111;-82
2023/03/24 14:06:04;;;;;;;9.07;1.60;;;;;;;;;;5109046;27;20101;-82
2023/03/24 14:08:54;;;;;;;9.15;2.08;;;;;;;;;;5153393;27;20364;-83
2023/03/24 14:11:40;;;;;;;10.55;1.65;;;;;;;;;;5136681;27;20051;-81
2023/03/24 14:14:15;;;;;;;10.85;2.10;;;;;;;;;;5137088;27;20046;-83
2023/03/24 14:16:52;;;;;;;10.23;1.52;;;;;;;;;;5126500;27;20514;-83
2023/03/24 14:19:37;;;;;;;10.07;1.67;;;;;;;;;;5153875;27;20042;-82
2023/03/24 14:22:16;;;;;;;11.68;2.22;;;;;;;;;;5146069;27;20074;-81
2023/03/24 14:24:44;;;;;;;8.93;1.70;;;;;;;;;;5124342;27;20502;-82
2023/03/24 14:27:29;;;;;;;11.00;1.90;;;;;;;;;;5145125;27;20099;-82
2023/03/24 14:29:59;;;;;;;12.05;1.98;;;;;;;;;;5140717;27;20122;-83
2023/03/24 14:32:25;;;;;;;9.07;1.90;;;;;;;;;;5156119;27;20065;-83
2023/03/24 14:34:58;;;;;;;11.48;2.00;;;;;;;;;;5152271;27;20053;-83
2023/03/24 14:37:26;;;;;;;8.93;1.50;;;;;;;;;;5135029;27;20051;-84
2023/03/24 14:39:56;;;;;;;14.73;1.83;;;;;;;;;;5152662;27;20039;-82
2023/03/24 14:42:28;;;;;;;11.88;2.03;;;;;;;;;;5155585;27;20054;-82
2023/03/24 14:44:56;;;;;;;12.05;1.98;;;;;;;;;;5138339;27;20054;-82
2023/03/24 14:47:22;;;;;;;10.77;2.00;;;;;;;;;;5156457;27;20042;-82
2023/03/24 14:49:50;;;;;;;12.60;1.83;;;;;;;;;;5145967;27;20536;-82